Dades meteomassalio
Diari Summary for Octubre 14, 2017 Units:  Metric    English   Both
« Previous Day
Next Day »
Diari Semanal Mensual Anual Personalitzat
  Maxima: Minima: Mijana:
Temperatura: 27.2 °C 8.3 °C 16.3 °C
Rosada: 17.7 °C 6.9 °C 12.3 °C
Humitat: 94 % 54 % 79 %
Velocitat del vent: 31.5 km/h 0.0 km/h 5.4 km/h
Racha vent: 31.5 km/h - -
Vent:- - SE
Pressio: 1028.7 hPa 1025.6 hPa -
Pluja: 0.0 mm    
Historical Graphs
 
 
Tabular Data for Octubre 14, 2017
Time Temperature Dew Point Pressure Wind Wind Speed Wind Gust Humidity Rainfall Rate (Hourly) solar Conditions
00:03 12.8 °C 10.2 °C 1027.0 hPa Calm     84 % 0.0 mm 0.0 W/m2 CLR
00:08 12.8 °C 10.2 °C 1027.0 hPa Calm     84 % 0.0 mm 0.0 W/m2 CLR
00:09 12.8 °C 10.2 °C 1027.0 hPa Calm     84 % 0.0 mm 0.0 W/m2 CLR
00:14 12.8 °C 10.2 °C 1027.0 hPa Calm     84 % 0.0 mm 0.0 W/m2 CLR
00:19 12.8 °C 10.3 °C 1027.0 hPa Calm     85 % 0.0 mm 0.0 W/m2 CLR
00:24 12.8 °C 10.2 °C 1027.0 hPa Calm     84 % 0.0 mm 0.0 W/m2 CLR
00:29 12.8 °C 10.3 °C 1027.0 hPa Calm     85 % 0.0 mm 0.0 W/m2 CLR
00:34 12.8 °C 10.3 °C 1027.0 hPa Calm     85 % 0.0 mm 0.0 W/m2 CLR
00:39 12.8 °C 10.3 °C 1027.0 hPa Calm     85 % 0.0 mm 0.0 W/m2 CLR
00:44 12.8 °C 10.3 °C 1027.0 hPa Calm     85 % 0.0 mm 0.0 W/m2 CLR
00:49 12.2 °C 9.8 °C 1027.0 hPa Calm     85 % 0.0 mm 0.0 W/m2 CLR
00:54 12.2 °C 9.8 °C 1027.0 hPa Calm     85 % 0.0 mm 0.0 W/m2 CLR
00:59 12.2 °C 9.8 °C 1027.0 hPa Calm     85 % 0.0 mm 0.0 W/m2 CLR
01:04 12.2 °C 9.8 °C 1027.0 hPa Calm     85 % 0.0 mm 0.0 W/m2 CLR
01:09 12.2 °C 9.8 °C 1027.0 hPa Calm     85 % 0.0 mm 0.0 W/m2 CLR
01:14 11.7 °C 9.2 °C 1027.0 hPa Calm     85 % 0.0 mm 0.0 W/m2 CLR
01:19 11.7 °C 9.2 °C 1027.3 hPa Calm     85 % 0.0 mm 0.0 W/m2 CLR
01:24 11.7 °C 9.4 °C 1027.3 hPa Calm     86 % 0.0 mm 0.0 W/m2 CLR
01:29 11.7 °C 9.4 °C 1027.3 hPa Calm     86 % 0.0 mm 0.0 W/m2 CLR
01:34 11.7 °C 9.4 °C 1027.3 hPa Calm     86 % 0.0 mm 0.0 W/m2 CLR
01:39 11.7 °C 9.4 °C 1027.3 hPa Calm     86 % 0.0 mm 0.0 W/m2 CLR
01:44 11.1 °C 9.1 °C 1027.3 hPa Calm     87 % 0.0 mm 0.0 W/m2 CLR
01:49 11.1 °C 9.1 °C 1027.3 hPa Calm     87 % 0.0 mm 0.0 W/m2 CLR
01:54 11.1 °C 8.8 °C 1027.3 hPa Calm     86 % 0.0 mm 0.0 W/m2 CLR
01:59 11.1 °C 8.8 °C 1027.3 hPa Calm     86 % 0.0 mm 0.0 W/m2 CLR
02:04 11.7 °C 9.6 °C 1027.3 hPa Calm     87 % 0.0 mm 0.0 W/m2 CLR
02:09 12.2 °C 10.1 °C 1027.3 hPa Calm     87 % 0.0 mm 0.0 W/m2 CLR
02:14 11.7 °C 9.6 °C 1027.3 hPa Calm     87 % 0.0 mm 0.0 W/m2 CLR
02:19 11.7 °C 9.6 °C 1027.3 hPa Calm     87 % 0.0 mm 0.0 W/m2 CLR
02:24 11.7 °C 9.6 °C 1027.3 hPa Calm     87 % 0.0 mm 0.0 W/m2 CLR
02:29 11.1 °C 9.1 °C 1027.3 hPa Calm     87 % 0.0 mm 0.0 W/m2 CLR
02:34 11.1 °C 9.1 °C 1027.3 hPa Calm     87 % 0.0 mm 0.0 W/m2 CLR
02:39 11.1 °C 9.1 °C 1027.3 hPa Calm     87 % 0.0 mm 0.0 W/m2 CLR
02:44 11.1 °C 9.1 °C 1027.3 hPa Calm     87 % 0.0 mm 0.0 W/m2 CLR
02:49 11.1 °C 9.1 °C 1027.3 hPa Calm     87 % 0.0 mm 0.0 W/m2 CLR
02:54 11.1 °C 9.2 °C 1027.3 hPa Calm     88 % 0.0 mm 0.0 W/m2 CLR
02:59 10.6 °C 8.8 °C 1027.3 hPa Calm     89 % 0.0 mm 0.0 W/m2 CLR
03:04 10.6 °C 8.8 °C 1027.3 hPa Calm     89 % 0.0 mm 0.0 W/m2 CLR
03:09 10.6 °C 8.7 °C 1027.3 hPa Calm     88 % 0.0 mm 0.0 W/m2 CLR
03:14 10.6 °C 8.7 °C 1027.0 hPa Calm     88 % 0.0 mm 0.0 W/m2 CLR
03:19 10.6 °C 8.8 °C 1027.0 hPa Calm     89 % 0.0 mm 0.0 W/m2 CLR
03:24 10.6 °C 8.7 °C 1027.3 hPa Calm     88 % 0.0 mm 0.0 W/m2 CLR
03:29 10.6 °C 8.7 °C 1027.0 hPa Calm     88 % 0.0 mm 0.0 W/m2 CLR
03:34 10.6 °C 8.7 °C 1027.0 hPa Calm     88 % 0.0 mm 0.0 W/m2 CLR
03:39 10.6 °C 8.7 °C 1027.0 hPa Calm     88 % 0.0 mm 0.0 W/m2 CLR
03:44 10.6 °C 8.8 °C 1027.0 hPa Calm     89 % 0.0 mm 0.0 W/m2 CLR
03:49 10.0 °C 8.3 °C 1027.0 hPa Calm     89 % 0.0 mm 0.0 W/m2 CLR
03:54 10.0 °C 8.3 °C 1027.0 hPa Calm     89 % 0.0 mm 0.0 W/m2 CLR
03:59 10.0 °C 8.3 °C 1027.0 hPa Calm     89 % 0.0 mm 0.0 W/m2 CLR
04:04 10.0 °C 8.3 °C 1027.0 hPa Calm     89 % 0.0 mm 0.0 W/m2 CLR
04:09 10.0 °C 8.4 °C 1027.0 hPa Calm     90 % 0.0 mm 0.0 W/m2 CLR
04:14 10.0 °C 8.4 °C 1027.0 hPa Calm     90 % 0.0 mm 0.0 W/m2 CLR
04:19 10.0 °C 8.4 °C 1027.0 hPa Calm     90 % 0.0 mm 0.0 W/m2 CLR
04:24 10.0 °C 8.4 °C 1027.0 hPa Calm     90 % 0.0 mm 0.0 W/m2 CLR
04:29 10.0 °C 8.4 °C 1027.0 hPa Calm     90 % 0.0 mm 0.0 W/m2 CLR
04:34 10.0 °C 8.4 °C 1027.0 hPa Calm     90 % 0.0 mm 0.0 W/m2 CLR
04:39 10.0 °C 8.4 °C 1027.0 hPa Calm     90 % 0.0 mm 0.0 W/m2 CLR
04:44 10.6 °C 9.0 °C 1027.0 hPa Calm     90 % 0.0 mm 0.0 W/m2 CLR
04:49 11.1 °C 9.6 °C 1027.0 hPa Calm     90 % 0.0 mm 0.0 W/m2 CLR
04:54 10.6 °C 9.0 °C 1027.0 hPa Calm     90 % 0.0 mm 0.0 W/m2 CLR
04:59 10.6 °C 9.0 °C 1027.0 hPa Calm     90 % 0.0 mm 0.0 W/m2 CLR
05:04 10.6 °C 9.2 °C 1027.0 hPa Calm     91 % 0.0 mm 0.0 W/m2 CLR
05:09 10.6 °C 9.2 °C 1027.0 hPa Calm     91 % 0.0 mm 0.0 W/m2 CLR
05:15 10.6 °C 9.2 °C 1027.0 hPa Calm     91 % 0.0 mm 0.0 W/m2 CLR
05:20 10.6 °C 9.2 °C 1027.0 hPa Calm     91 % 0.0 mm 0.0 W/m2 CLR
05:23 10.6 °C 9.2 °C 1027.0 hPa Calm     91 % 0.0 mm 0.0 W/m2 CLR
05:28 10.0 °C 8.6 °C 1027.0 hPa Calm     91 % 0.0 mm 0.0 W/m2 CLR
05:33 10.0 °C 8.4 °C 1027.0 hPa Calm     90 % 0.0 mm 0.0 W/m2 CLR
05:38 10.0 °C 8.4 °C 1027.0 hPa Calm     90 % 0.0 mm 0.0 W/m2 CLR
05:43 10.0 °C 8.6 °C 1027.0 hPa Calm     91 % 0.0 mm 0.0 W/m2 CLR
05:48 9.4 °C 8.1 °C 1027.0 hPa Calm     91 % 0.0 mm 0.0 W/m2 CLR
05:53 9.4 °C 8.1 °C 1027.0 hPa Calm     91 % 0.0 mm 0.0 W/m2 CLR
05:58 9.4 °C 8.1 °C 1027.0 hPa Calm     91 % 0.0 mm 0.0 W/m2 CLR
06:03 9.4 °C 8.1 °C 1027.0 hPa Calm     91 % 0.0 mm 0.0 W/m2 CLR
06:13 9.4 °C 8.1 °C 1027.0 hPa Calm     91 % 0.0 mm 0.0 W/m2 CLR
06:18 9.4 °C 8.1 °C 1027.3 hPa Calm     91 % 0.0 mm 0.0 W/m2 CLR
06:23 9.4 °C 8.1 °C 1027.3 hPa Calm     91 % 0.0 mm 0.0 W/m2 CLR
06:28 9.4 °C 8.1 °C 1027.3 hPa Calm     91 % 0.0 mm 0.0 W/m2 CLR
06:33 9.4 °C 8.1 °C 1027.3 hPa Calm     91 % 0.0 mm 0.0 W/m2 CLR
06:38 9.4 °C 8.1 °C 1027.3 hPa Calm     91 % 0.0 mm 0.0 W/m2 CLR
06:43 8.9 °C 7.3 °C 1027.3 hPa Calm     90 % 0.0 mm 0.0 W/m2 CLR
06:48 8.9 °C 7.5 °C 1027.3 hPa Calm     91 % 0.0 mm 0.0 W/m2 CLR
06:53 8.9 °C 7.5 °C 1027.3 hPa Calm     91 % 0.0 mm 0.0 W/m2 CLR
06:58 8.9 °C 7.5 °C 1027.3 hPa Calm     91 % 0.0 mm 0.0 W/m2 CLR
07:03 8.9 °C 7.7 °C 1027.3 hPa Calm     92 % 0.0 mm 0.0 W/m2 CLR
07:08 8.9 °C 7.5 °C 1027.3 hPa Calm     91 % 0.0 mm 0.0 W/m2 CLR
07:13 8.9 °C 7.5 °C 1027.7 hPa Calm     91 % 0.0 mm 0.0 W/m2 CLR
07:18 8.9 °C 7.5 °C 1027.3 hPa Calm     91 % 0.0 mm 0.0 W/m2 CLR
07:23 8.9 °C 7.5 °C 1027.7 hPa Calm     91 % 0.0 mm 0.0 W/m2 CLR
07:28 8.9 °C 7.5 °C 1027.7 hPa Calm     91 % 0.0 mm 0.0 W/m2 CLR
07:33 8.9 °C 7.5 °C 1027.7 hPa Calm     91 % 0.0 mm 0.0 W/m2 CLR
07:38 8.9 °C 7.5 °C 1027.7 hPa Calm     91 % 0.0 mm 0.0 W/m2 CLR
07:43 8.9 °C 7.5 °C 1027.7 hPa Calm     91 % 0.0 mm 0.0 W/m2 CLR
07:48 8.9 °C 7.5 °C 1027.7 hPa Calm     91 % 0.0 mm 0.0 W/m2 CLR
07:49 8.9 °C 7.5 °C 1027.7 hPa Calm     91 % 0.0 mm 0.0 W/m2 CLR
07:54 8.9 °C 7.5 °C 1027.7 hPa Calm     91 % 0.0 mm 0.0 W/m2 CLR
07:59 8.9 °C 7.5 °C 1027.7 hPa Calm     91 % 0.0 mm 0.0 W/m2 CLR
08:04 8.9 °C 7.5 °C 1027.7 hPa Calm     91 % 0.0 mm 0.0 W/m2 OVC
08:09 8.3 °C 7.1 °C 1027.7 hPa Calm     92 % 0.0 mm 0.0 W/m2 OVC
08:14 8.3 °C 7.1 °C 1027.7 hPa Calm     92 % 0.0 mm 5.0 W/m2 OVC
08:19 8.3 °C 6.9 °C 1027.7 hPa Calm     91 % 0.0 mm 9.0 W/m2 BKN
08:25 8.3 °C 7.1 °C 1027.7 hPa Calm     92 % 0.0 mm 11.0 W/m2 BKN
08:30 8.9 °C 7.7 °C 1027.7 hPa Calm     92 % 0.0 mm 14.0 W/m2 BKN
08:35 8.9 °C 7.7 °C 1027.7 hPa Calm     92 % 0.0 mm 18.0 W/m2 BKN
08:40 8.9 °C 7.7 °C 1028.0 hPa Calm     92 % 0.0 mm 23.0 W/m2 BKN
08:45 9.4 °C 8.2 °C 1028.0 hPa Calm     92 % 0.0 mm 26.0 W/m2 BKN
08:50 10.0 °C 8.9 °C 1028.0 hPa Calm     93 % 0.0 mm 30.0 W/m2 BKN
08:55 10.6 °C 9.3 °C 1028.0 hPa Calm     92 % 0.0 mm 39.0 W/m2 BKN
09:00 10.6 °C 9.4 °C 1028.0 hPa Calm     93 % 0.0 mm 47.0 W/m2 SCT
09:05 11.1 °C 10.0 °C 1028.0 hPa Calm     93 % 0.0 mm 56.0 W/m2 SCT
09:10 11.1 °C 10.0 °C 1028.0 hPa Calm     93 % 0.0 mm 56.0 W/m2 SCT
09:15 11.1 °C 10.0 °C 1028.0 hPa Calm     93 % 0.0 mm 70.0 W/m2 SCT
09:20 11.1 °C 10.0 °C 1028.3 hPa Calm     93 % 0.0 mm 90.0 W/m2 FEW
09:25 11.7 °C 10.6 °C 1028.3 hPa Calm     93 % 0.0 mm 95.0 W/m2 CLR
09:30 11.7 °C 10.6 °C 1028.3 hPa Calm     93 % 0.0 mm 100.0 W/m2 CLR
09:35 11.7 °C 10.6 °C 1028.3 hPa Calm     93 % 0.0 mm 125.0 W/m2 CLR
09:40 11.7 °C 10.6 °C 1028.3 hPa Calm     93 % 0.0 mm 139.0 W/m2 CLR
09:45 12.2 °C 11.1 °C 1028.3 hPa Calm     93 % 0.0 mm 167.0 W/m2 CLR
09:50 12.2 °C 11.3 °C 1028.3 hPa Calm     94 % 0.0 mm 193.0 W/m2 CLR
09:55 12.8 °C 11.7 °C 1028.3 hPa Calm     93 % 0.0 mm 195.0 W/m2 CLR
10:00 12.8 °C 11.7 °C 1028.3 hPa Calm     93 % 0.0 mm 229.0 W/m2 CLR
10:05 13.3 °C 12.4 °C 1028.3 hPa Calm     94 % 0.0 mm 250.0 W/m2 CLR
10:10 13.3 °C 12.4 °C 1028.3 hPa Calm     94 % 0.0 mm 262.0 W/m2 CLR
10:15 13.3 °C 12.4 °C 1028.3 hPa Calm     94 % 0.0 mm 278.0 W/m2 CLR
10:20 13.9 °C 12.8 °C 1028.3 hPa Calm     93 % 0.0 mm 292.0 W/m2 CLR
10:25 14.4 °C 13.3 °C 1028.7 hPa Calm     93 % 0.0 mm 309.0 W/m2 CLR
10:30 15.0 °C 13.7 °C 1028.3 hPa Calm     92 % 0.0 mm 327.0 W/m2 CLR
10:35 15.0 °C 13.7 °C 1028.7 hPa Calm     92 % 0.0 mm 338.0 W/m2 CLR
10:40 15.0 °C 13.6 °C 1028.7 hPa Calm     91 % 0.0 mm 355.0 W/m2 CLR
10:45 16.1 °C 14.4 °C 1028.7 hPa Calm     90 % 0.0 mm 366.0 W/m2 CLR
10:50 16.1 °C 13.9 °C 1028.7 hPa Calm     87 % 0.0 mm 378.0 W/m2 CLR
10:55 16.7 °C 14.3 °C 1028.7 hPa Calm     86 % 0.0 mm 392.0 W/m2 CLR
11:00 16.7 °C 13.8 °C 1028.3 hPa Calm     83 % 0.0 mm 406.0 W/m2 CLR
11:06 17.2 °C 14.1 °C 1028.7 hPa Calm     82 % 0.0 mm 420.0 W/m2 CLR
11:11 17.2 °C 13.9 °C 1028.3 hPa Calm     81 % 0.0 mm 429.0 W/m2 CLR
11:15 17.8 °C 14.5 °C 1028.3 hPa Calm     81 % 0.0 mm 443.0 W/m2 CLR
11:21 18.3 °C 15.0 °C 1028.3 hPa Calm     81 % 0.0 mm 457.0 W/m2 CLR
11:25 18.3 °C 14.6 °C 1028.3 hPa Calm     79 % 0.0 mm 468.0 W/m2 CLR
11:31 18.3 °C 14.6 °C 1028.3 hPa Calm     79 % 0.0 mm 476.0 W/m2 CLR
11:36 18.9 °C 14.9 °C 1028.3 hPa NW 1.9 km/h   78 % 0.0 mm 485.0 W/m2 CLR
11:41 19.4 °C 15.3 °C 1028.3 hPa Calm     77 % 0.0 mm 496.0 W/m2 CLR
11:46 19.4 °C 15.1 °C 1028.3 hPa Calm     76 % 0.0 mm 508.0 W/m2 CLR
11:51 20.0 °C 15.7 °C 1028.3 hPa NNW 8.0 km/h 8.0 km/h 76 % 0.0 mm 517.0 W/m2 CLR
11:56 20.0 °C 15.2 °C 1028.0 hPa NW 7.4 km/h 7.4 km/h 74 % 0.0 mm 526.0 W/m2 CLR
12:01 20.6 °C 15.8 °C 1028.0 hPa NNW 7.4 km/h 7.4 km/h 74 % 0.0 mm 534.0 W/m2 CLR
12:06 20.6 °C 15.8 °C 1028.0 hPa NW 7.4 km/h 7.4 km/h 74 % 0.0 mm 543.0 W/m2 CLR
12:11 21.1 °C 16.1 °C 1028.0 hPa NNW 8.0 km/h 8.0 km/h 73 % 0.0 mm 552.0 W/m2 CLR
12:16 21.1 °C 15.9 °C 1028.0 hPa NW 13.0 km/h 13.0 km/h 72 % 0.0 mm 559.0 W/m2 CLR
12:21 21.1 °C 15.9 °C 1028.0 hPa NW 9.7 km/h 9.7 km/h 72 % 0.0 mm 563.0 W/m2 CLR
12:26 21.7 °C 16.4 °C 1028.0 hPa NNW 7.4 km/h 7.4 km/h 72 % 0.0 mm 573.0 W/m2 CLR
12:31 21.7 °C 16.4 °C 1028.0 hPa NNW 13.0 km/h 13.0 km/h 72 % 0.0 mm 577.0 W/m2 CLR
12:36 22.2 °C 16.9 °C 1028.0 hPa NNW 13.0 km/h 13.0 km/h 72 % 0.0 mm 584.0 W/m2 CLR
12:41 22.8 °C 17.2 °C 1027.7 hPa NW 7.4 km/h 7.4 km/h 71 % 0.0 mm 587.0 W/m2 CLR
12:46 22.2 °C 16.7 °C 1027.7 hPa NNW 13.0 km/h 13.0 km/h 71 % 0.0 mm 594.0 W/m2 CLR
12:51 22.8 °C 17.0 °C 1027.7 hPa NW 7.4 km/h 7.4 km/h 70 % 0.0 mm 599.0 W/m2 CLR
12:56 23.3 °C 17.3 °C 1027.7 hPa NW 3.7 km/h 3.7 km/h 69 % 0.0 mm 603.0 W/m2 CLR
13:01 23.3 °C 17.1 °C 1027.7 hPa NW 13.0 km/h 13.0 km/h 68 % 0.0 mm 610.0 W/m2 CLR
13:06 23.3 °C 17.1 °C 1027.3 hPa NW 13.0 km/h 13.0 km/h 68 % 0.0 mm 608.0 W/m2 CLR
13:11 23.9 °C 17.4 °C 1027.3 hPa WNW 7.4 km/h 7.4 km/h 67 % 0.0 mm 613.0 W/m2 CLR
13:16 23.9 °C 17.4 °C 1027.3 hPa NW 9.3 km/h 9.3 km/h 67 % 0.0 mm 617.0 W/m2 CLR
13:21 24.4 °C 17.7 °C 1027.3 hPa NNW 14.8 km/h 14.8 km/h 66 % 0.0 mm 621.0 W/m2 CLR
13:26 24.4 °C 17.2 °C 1027.0 hPa NNE 5.6 km/h 5.6 km/h 64 % 0.0 mm 621.0 W/m2 CLR
13:31 25.0 °C 17.4 °C 1027.0 hPa North 14.8 km/h 14.8 km/h 63 % 0.0 mm 622.0 W/m2 CLR
13:36 24.4 °C 16.7 °C 1027.0 hPa NW 7.4 km/h 7.4 km/h 62 % 0.0 mm 622.0 W/m2 CLR
13:41 24.4 °C 16.7 °C 1027.0 hPa NNW 13.0 km/h 13.0 km/h 62 % 0.0 mm 624.0 W/m2 CLR
13:46 25.0 °C 16.9 °C 1027.0 hPa NNW 7.4 km/h 7.4 km/h 61 % 0.0 mm 626.0 W/m2 CLR
13:51 25.6 °C 17.2 °C 1026.6 hPa NNW 14.8 km/h 14.8 km/h 60 % 0.0 mm 624.0 W/m2 CLR
13:56 25.0 °C 16.4 °C 1026.6 hPa North 13.0 km/h 13.0 km/h 59 % 0.0 mm 624.0 W/m2 CLR
14:01 25.6 °C 16.9 °C 1026.6 hPa WNW 5.6 km/h 5.6 km/h 59 % 0.0 mm 624.0 W/m2 CLR
14:06 25.6 °C 16.7 °C 1026.6 hPa North 11.1 km/h 11.1 km/h 58 % 0.0 mm 622.0 W/m2 CLR
14:11 25.6 °C 16.4 °C 1026.3 hPa NW 18.5 km/h 18.5 km/h 57 % 0.0 mm 621.0 W/m2 CLR
14:16 25.6 °C 16.4 °C 1026.3 hPa North 13.0 km/h 13.0 km/h 57 % 0.0 mm 622.0 W/m2 CLR
14:21 26.1 °C 16.7 °C 1026.3 hPa NNE 13.0 km/h 13.0 km/h 56 % 0.0 mm 617.0 W/m2 CLR
14:26 26.1 °C 16.7 °C 1026.3 hPa NNE 13.0 km/h 13.0 km/h 56 % 0.0 mm 613.0 W/m2 CLR
14:31 26.7 °C 17.2 °C 1026.3 hPa North 18.5 km/h 18.5 km/h 56 % 0.0 mm 610.0 W/m2 CLR
14:36 26.7 °C 16.6 °C 1026.0 hPa NNE 16.1 km/h 16.1 km/h 54 % 0.0 mm 603.0 W/m2 CLR
14:41 27.2 °C 17.1 °C 1026.0 hPa NE 18.5 km/h 18.5 km/h 54 % 0.0 mm 601.0 W/m2 CLR
14:46 27.2 °C 17.1 °C 1026.0 hPa NNE 14.8 km/h 14.8 km/h 54 % 0.0 mm 596.0 W/m2 CLR
14:51 26.7 °C 16.6 °C 1026.0 hPa NNW 13.0 km/h 13.0 km/h 54 % 0.0 mm 591.0 W/m2 CLR
14:56 27.2 °C 17.1 °C 1026.0 hPa NE 18.5 km/h 18.5 km/h 54 % 0.0 mm 587.0 W/m2 CLR
15:01 27.2 °C 17.4 °C 1026.0 hPa ENE 22.5 km/h 22.5 km/h 55 % 0.0 mm 582.0 W/m2 CLR
15:06 27.2 °C 17.4 °C 1026.0 hPa NE 20.4 km/h 20.4 km/h 55 % 0.0 mm 575.0 W/m2 CLR
15:11 27.2 °C 17.4 °C 1026.0 hPa NE 22.5 km/h 22.5 km/h 55 % 0.0 mm 570.0 W/m2 CLR
15:16 26.7 °C 16.9 °C 1026.0 hPa NE 20.4 km/h 20.4 km/h 55 % 0.0 mm 561.0 W/m2 CLR
15:21 26.7 °C 17.2 °C 1025.6 hPa NE 20.4 km/h 20.4 km/h 56 % 0.0 mm 554.0 W/m2 CLR
15:26 26.7 °C 16.9 °C 1025.6 hPa NNE 16.1 km/h 16.1 km/h 55 % 0.0 mm 547.0 W/m2 CLR
15:31 26.1 °C 16.7 °C 1025.6 hPa NE 18.5 km/h 18.5 km/h 56 % 0.0 mm 538.0 W/m2 CLR
15:36 26.7 °C 17.2 °C 1025.6 hPa NNE 20.4 km/h 20.4 km/h 56 % 0.0 mm 529.0 W/m2 CLR
15:41 26.1 °C 16.9 °C 1025.6 hPa NNE 27.8 km/h 27.8 km/h 57 % 0.0 mm 522.0 W/m2 CLR
15:46 26.1 °C 17.2 °C 1026.0 hPa NE 19.3 km/h 19.3 km/h 58 % 0.0 mm 513.0 W/m2 CLR
15:51 26.1 °C 16.9 °C 1025.6 hPa ENE 16.7 km/h 16.7 km/h 57 % 0.0 mm 504.0 W/m2 CLR
15:56 26.7 °C 17.7 °C 1025.6 hPa NE 18.5 km/h 18.5 km/h 58 % 0.0 mm 494.0 W/m2 CLR
16:01 26.1 °C 16.9 °C 1025.6 hPa ENE 24.1 km/h 24.1 km/h 57 % 0.0 mm 483.0 W/m2 CLR
16:06 26.1 °C 17.2 °C 1025.6 hPa NE 22.5 km/h 22.5 km/h 58 % 0.0 mm 473.0 W/m2 CLR
16:11 26.1 °C 17.4 °C 1025.6 hPa NE 24.1 km/h 24.1 km/h 59 % 0.0 mm 464.0 W/m2 CLR
16:16 26.1 °C 17.4 °C 1025.6 hPa NE 24.1 km/h 24.1 km/h 59 % 0.0 mm 454.0 W/m2 CLR
16:21 26.1 °C 17.4 °C 1025.6 hPa ENE 27.4 km/h 27.4 km/h 59 % 0.0 mm 441.0 W/m2 CLR
16:22 26.1 °C 17.4 °C 1025.6 hPa East 27.8 km/h 27.8 km/h 59 % 0.0 mm 439.0 W/m2 CLR
16:27 25.6 °C 16.7 °C 1025.6 hPa NE 25.9 km/h 25.9 km/h 58 % 0.0 mm 429.0 W/m2 CLR
16:32 25.6 °C 17.2 °C 1025.6 hPa NNE 22.2 km/h 22.2 km/h 60 % 0.0 mm 417.0 W/m2 CLR
16:37 25.6 °C 16.9 °C 1025.6 hPa NE 27.8 km/h 27.8 km/h 59 % 0.0 mm 403.0 W/m2 CLR
16:42 25.0 °C 16.7 °C 1025.6 hPa NE 29.6 km/h 29.6 km/h 60 % 0.0 mm 390.0 W/m2 CLR
16:47 25.6 °C 17.5 °C 1025.6 hPa ENE 20.9 km/h 20.9 km/h 61 % 0.0 mm 378.0 W/m2 CLR
16:52 25.6 °C 17.5 °C 1025.6 hPa NE 27.8 km/h 27.8 km/h 61 % 0.0 mm 366.0 W/m2 CLR
16:53 25.0 °C 16.9 °C 1025.6 hPa NE 24.1 km/h 24.1 km/h 61 % 0.0 mm 362.0 W/m2 CLR
16:58 25.0 °C 17.2 °C 1025.6 hPa NE 31.5 km/h 31.5 km/h 62 % 0.0 mm 348.0 W/m2 CLR
17:01 25.0 °C 17.2 °C 1025.6 hPa ENE 24.1 km/h 24.1 km/h 62 % 0.0 mm 341.0 W/m2 CLR
17:06 25.0 °C 17.2 °C 1025.6 hPa ENE 22.2 km/h 22.2 km/h 62 % 0.0 mm 329.0 W/m2 CLR
17:11 25.0 °C 17.2 °C 1025.6 hPa ENE 18.5 km/h 18.5 km/h 62 % 0.0 mm 315.0 W/m2 CLR
17:16 25.0 °C 16.9 °C 1025.6 hPa NE 22.5 km/h 22.5 km/h 61 % 0.0 mm 301.0 W/m2 CLR
17:21 25.0 °C 16.9 °C 1025.6 hPa ENE 14.8 km/h 14.8 km/h 61 % 0.0 mm 288.0 W/m2 CLR
17:26 24.4 °C 16.4 °C 1025.6 hPa NE 18.5 km/h 18.5 km/h 61 % 0.0 mm 274.0 W/m2 CLR
17:31 24.4 °C 16.7 °C 1025.6 hPa ENE 20.4 km/h 20.4 km/h 62 % 0.0 mm 257.0 W/m2 CLR
17:36 24.4 °C 16.7 °C 1025.6 hPa NE 18.5 km/h 18.5 km/h 62 % 0.0 mm 239.0 W/m2 CLR
17:41 24.4 °C 16.4 °C 1025.6 hPa ENE 22.2 km/h 22.2 km/h 61 % 0.0 mm 225.0 W/m2 CLR
17:46 23.9 °C 16.2 °C 1025.6 hPa ENE 22.2 km/h 22.2 km/h 62 % 0.0 mm 209.0 W/m2 CLR
17:51 23.9 °C 16.4 °C 1025.6 hPa NE 22.2 km/h 22.2 km/h 63 % 0.0 mm 195.0 W/m2 CLR
17:56 23.9 °C 16.4 °C 1025.6 hPa ENE 25.9 km/h 25.9 km/h 63 % 0.0 mm 179.0 W/m2 CLR
18:01 23.3 °C 15.9 °C 1025.6 hPa ENE 20.4 km/h 20.4 km/h 63 % 0.0 mm 162.0 W/m2 CLR
18:06 23.3 °C 16.1 °C 1025.6 hPa NE 25.9 km/h 25.9 km/h 64 % 0.0 mm 144.0 W/m2 CLR
18:11 23.3 °C 16.1 °C 1025.6 hPa NE 16.7 km/h 16.7 km/h 64 % 0.0 mm 130.0 W/m2 CLR
18:16 23.3 °C 16.1 °C 1025.6 hPa NE 18.5 km/h 18.5 km/h 64 % 0.0 mm 114.0 W/m2 CLR
18:21 22.8 °C 15.6 °C 1025.6 hPa ENE 18.5 km/h 18.5 km/h 64 % 0.0 mm 98.0 W/m2 CLR
18:26 22.8 °C 15.8 °C 1025.6 hPa NE 16.7 km/h 16.7 km/h 65 % 0.0 mm 84.0 W/m2 CLR
18:27 22.8 °C 15.8 °C 1025.6 hPa NE 14.8 km/h 14.8 km/h 65 % 0.0 mm 84.0 W/m2 FEW
18:32 22.8 °C 15.8 °C 1025.6 hPa ENE 14.8 km/h 14.8 km/h 65 % 0.0 mm 63.0 W/m2 SCT
18:37 22.2 °C 15.3 °C 1026.0 hPa NE 14.8 km/h 14.8 km/h 65 % 0.0 mm 49.0 W/m2 SCT
18:42 22.2 °C 15.3 °C 1026.0 hPa NE 11.1 km/h 11.1 km/h 65 % 0.0 mm 46.0 W/m2 SCT
18:47 22.2 °C 15.3 °C 1026.0 hPa NNE 13.0 km/h 13.0 km/h 65 % 0.0 mm 37.0 W/m2 BKN
18:52 21.7 °C 15.1 °C 1026.0 hPa NE 8.0 km/h 8.0 km/h 66 % 0.0 mm 26.0 W/m2 BKN
18:57 21.7 °C 15.3 °C 1026.0 hPa NE 9.3 km/h 9.3 km/h 67 % 0.0 mm 21.0 W/m2 BKN
19:02 21.1 °C 15.0 °C 1026.0 hPa ENE 16.7 km/h 16.7 km/h 68 % 0.0 mm 18.0 W/m2 BKN
19:07 21.1 °C 15.0 °C 1026.0 hPa NE 9.3 km/h 9.3 km/h 68 % 0.0 mm 12.0 W/m2 BKN
19:12 21.1 °C 15.2 °C 1026.3 hPa NE 5.6 km/h 5.6 km/h 69 % 0.0 mm 11.0 W/m2 BKN
19:17 20.6 °C 14.7 °C 1026.3 hPa NE 5.6 km/h 5.6 km/h 69 % 0.0 mm 5.0 W/m2 OVC
19:22 20.0 °C 14.3 °C 1026.3 hPa NNE 5.6 km/h 5.6 km/h 70 % 0.0 mm 0.0 W/m2 OVC
19:27 20.0 °C 14.3 °C 1026.3 hPa Calm     70 % 0.0 mm 0.0 W/m2 OVC
19:32 19.4 °C 14.1 °C 1026.3 hPa NE 5.6 km/h   71 % 0.0 mm 0.0 W/m2 CLR
19:37 19.4 °C 14.3 °C 1026.3 hPa NE 9.3 km/h 9.3 km/h 72 % 0.0 mm 0.0 W/m2 CLR
19:42 18.9 °C 13.9 °C 1026.6 hPa Calm     73 % 0.0 mm 0.0 W/m2 CLR
19:47 18.9 °C 14.2 °C 1026.6 hPa NE 7.4 km/h 7.4 km/h 74 % 0.0 mm 0.0 W/m2 CLR
19:52 18.9 °C 14.2 °C 1026.6 hPa Calm     74 % 0.0 mm 0.0 W/m2 CLR
19:57 18.9 °C 14.2 °C 1026.6 hPa Calm     74 % 0.0 mm 0.0 W/m2 CLR
20:02 18.3 °C 13.8 °C 1026.6 hPa Calm     75 % 0.0 mm 0.0 W/m2 CLR
20:07 18.3 °C 13.8 °C 1026.6 hPa Calm     75 % 0.0 mm 0.0 W/m2 CLR
20:12 17.8 °C 13.5 °C 1026.6 hPa Calm     76 % 0.0 mm 0.0 W/m2 CLR
20:17 17.8 °C 13.7 °C 1027.0 hPa Calm     77 % 0.0 mm 0.0 W/m2 CLR
20:22 17.8 °C 13.7 °C 1027.0 hPa NE 11.1 km/h 11.1 km/h 77 % 0.0 mm 0.0 W/m2 CLR
20:27 17.2 °C 13.3 °C 1027.0 hPa Calm     78 % 0.0 mm 0.0 W/m2 CLR
20:32 17.2 °C 13.3 °C 1027.0 hPa Calm     78 % 0.0 mm 0.0 W/m2 CLR
20:37 16.7 °C 12.8 °C 1027.0 hPa Calm     78 % 0.0 mm 0.0 W/m2 CLR
20:42 16.7 °C 13.0 °C 1027.0 hPa Calm     79 % 0.0 mm 0.0 W/m2 CLR
20:47 16.1 °C 12.4 °C 1027.0 hPa Calm     79 % 0.0 mm 0.0 W/m2 CLR
20:52 16.1 °C 12.4 °C 1027.0 hPa Calm     79 % 0.0 mm 0.0 W/m2 CLR
20:57 16.1 °C 12.7 °C 1027.0 hPa Calm     80 % 0.0 mm 0.0 W/m2 CLR
21:02 16.1 °C 12.7 °C 1027.0 hPa Calm     80 % 0.0 mm 0.0 W/m2 CLR
21:07 15.6 °C 12.1 °C 1027.0 hPa Calm     80 % 0.0 mm 0.0 W/m2 CLR
21:12 15.6 °C 12.1 °C 1027.0 hPa Calm     80 % 0.0 mm 0.0 W/m2 CLR
21:17 15.6 °C 12.1 °C 1027.0 hPa Calm     80 % 0.0 mm 0.0 W/m2 CLR
21:22 15.6 °C 12.1 °C 1027.0 hPa Calm     80 % 0.0 mm 0.0 W/m2 CLR
21:27 15.0 °C 11.8 °C 1027.0 hPa Calm     81 % 0.0 mm 0.0 W/m2 CLR
21:32 15.0 °C 11.8 °C 1027.3 hPa Calm     81 % 0.0 mm 0.0 W/m2 CLR
21:33 15.0 °C 11.8 °C 1027.3 hPa Calm     81 % 0.0 mm 0.0 W/m2 CLR
21:38 15.0 °C 11.8 °C 1027.3 hPa Calm     81 % 0.0 mm 0.0 W/m2 CLR
21:43 15.0 °C 11.8 °C 1027.3 hPa Calm     81 % 0.0 mm 0.0 W/m2 CLR
21:48 14.4 °C 11.2 °C 1027.3 hPa Calm     81 % 0.0 mm 0.0 W/m2 CLR
21:53 14.4 °C 11.2 °C 1027.3 hPa Calm     81 % 0.0 mm 0.0 W/m2 CLR
21:58 14.4 °C 11.4 °C 1027.3 hPa Calm     82 % 0.0 mm 0.0 W/m2 CLR
22:03 13.9 °C 10.9 °C 1027.3 hPa Calm     82 % 0.0 mm 0.0 W/m2 CLR
22:04 13.9 °C 10.9 °C 1027.3 hPa Calm     82 % 0.0 mm 0.0 W/m2 CLR
22:10 13.9 °C 10.9 °C 1027.3 hPa Calm     82 % 0.0 mm 0.0 W/m2 CLR
22:14 13.9 °C 11.1 °C 1027.3 hPa Calm     83 % 0.0 mm 0.0 W/m2 CLR
22:20 13.9 °C 11.1 °C 1027.3 hPa Calm     83 % 0.0 mm 0.0 W/m2 CLR
22:25 13.3 °C 10.5 °C 1027.3 hPa Calm     83 % 0.0 mm 0.0 W/m2 CLR
22:30 13.3 °C 10.5 °C 1027.3 hPa Calm     83 % 0.0 mm 0.0 W/m2 CLR
22:35 13.3 °C 10.7 °C 1027.3 hPa Calm     84 % 0.0 mm 0.0 W/m2 CLR
22:40 13.3 °C 10.7 °C 1027.3 hPa Calm     84 % 0.0 mm 0.0 W/m2 CLR
22:45 13.3 °C 10.7 °C 1027.3 hPa Calm     84 % 0.0 mm 0.0 W/m2 CLR
22:50 13.3 °C 10.7 °C 1027.3 hPa Calm     84 % 0.0 mm 0.0 W/m2 CLR
22:55 13.3 °C 10.7 °C 1027.3 hPa Calm     84 % 0.0 mm 0.0 W/m2 CLR
23:00 13.3 °C 10.9 °C 1027.7 hPa Calm     85 % 0.0 mm 0.0 W/m2 CLR
23:05 13.3 °C 10.9 °C 1027.7 hPa Calm     85 % 0.0 mm 0.0 W/m2 CLR
23:10 13.3 °C 10.7 °C 1027.7 hPa Calm     84 % 0.0 mm 0.0 W/m2 CLR
23:15 13.3 °C 10.5 °C 1027.7 hPa Calm     83 % 0.0 mm 0.0 W/m2 CLR
23:20 13.3 °C 10.5 °C 1027.7 hPa Calm     83 % 0.0 mm 0.0 W/m2 CLR
23:25 13.9 °C 11.1 °C 1027.7 hPa Calm     83 % 0.0 mm 0.0 W/m2 CLR
23:30 13.9 °C 11.2 °C 1027.7 hPa Calm     84 % 0.0 mm 0.0 W/m2 CLR
23:31 13.9 °C 11.2 °C 1027.7 hPa Calm     84 % 0.0 mm 0.0 W/m2 CLR
23:36 13.3 °C 10.9 °C 1027.7 hPa Calm     85 % 0.0 mm 0.0 W/m2 CLR
23:41 13.3 °C 10.7 °C 1027.7 hPa Calm     84 % 0.0 mm 0.0 W/m2 CLR
23:46 13.3 °C 10.7 °C 1027.7 hPa Calm     84 % 0.0 mm 0.0 W/m2 CLR
23:51 13.3 °C 10.7 °C 1027.7 hPa Calm     84 % 0.0 mm 0.0 W/m2 CLR
23:56 13.9 °C 11.4 °C 1027.7 hPa Calm     85 % 0.0 mm 0.0 W/m2 CLR
Lo Temps de Massalio
Compliments of Weather Underground - 1.25 mb